createdAt,value
2023-09-05T00:03:19.918Z,92.25
2023-09-05T00:08:28.040Z,92.29
2023-09-05T00:13:34.450Z,92.25
2023-09-05T00:18:40.756Z,93.38
2023-09-05T00:23:48.981Z,92.70
2023-09-05T00:28:55.413Z,91.63
2023-09-05T00:34:01.624Z,92.26
2023-09-05T00:39:10.588Z,92.69
2023-09-05T00:44:16.733Z,93.18
2023-09-05T00:49:28.958Z,93.28
2023-09-05T00:54:38.568Z,93.35
2023-09-05T00:59:45.905Z,91.86
2023-09-05T01:04:52.570Z,92.07
2023-09-05T01:10:07.934Z,92.55
2023-09-05T01:15:14.279Z,92.60
2023-09-05T01:20:21.404Z,92.60
2023-09-05T01:25:30.543Z,92.88
2023-09-05T01:30:37.390Z,92.80
2023-09-05T01:35:43.625Z,91.80
2023-09-05T01:40:51.402Z,91.93
2023-09-05T01:45:57.741Z,92.33
2023-09-05T01:51:05.191Z,91.83
2023-09-05T01:56:13.034Z,91.22
2023-09-05T02:01:19.963Z,91.30
2023-09-05T02:06:26.431Z,91.08
2023-09-05T02:11:34.223Z,91.63
2023-09-05T02:16:40.653Z,91.71
2023-09-05T02:21:47.381Z,92.09
2023-09-05T02:26:57.575Z,90.94
2023-09-05T02:32:03.881Z,91.18
2023-09-05T02:37:10.266Z,90.86
2023-09-05T02:42:18.201Z,91.92
2023-09-05T02:47:24.776Z,91.95
2023-09-05T02:52:45.452Z,91.95
2023-09-05T02:57:55.712Z,91.68
2023-09-05T03:03:02.345Z,92.33
2023-09-05T03:08:08.821Z,91.95
2023-09-05T03:13:17.152Z,91.96
2023-09-05T03:18:24.040Z,92.50
2023-09-05T03:23:30.680Z,92.69
2023-09-05T03:28:46.982Z,92.90
2023-09-05T03:33:57.588Z,92.42
2023-09-05T03:39:04.496Z,92.60
2023-09-05T03:44:12.606Z,92.70
2023-09-05T03:49:19.402Z,92.50
2023-09-05T03:54:25.675Z,92.36
2023-09-05T03:59:33.789Z,92.12
2023-09-05T04:04:40.905Z,92.55
2023-09-05T04:09:50.852Z,92.61
2023-09-05T04:14:58.892Z,93.04
2023-09-05T04:20:08.109Z,92.51
2023-09-05T04:25:16.731Z,92.63
2023-09-05T04:30:24.517Z,93.28
2023-09-05T04:35:31.030Z,93.43
2023-09-05T04:40:38.413Z,93.58
2023-09-05T04:45:56.232Z,93.84
2023-09-05T04:51:05.667Z,93.75
2023-09-05T04:56:12.582Z,93.77
2023-09-05T05:01:20.515Z,94.33
2023-09-05T05:06:30.452Z,94.66
2023-09-05T05:11:37.089Z,94.87
2023-09-05T05:16:45.343Z,95.50
2023-09-05T05:21:52.191Z,95.35
2023-09-05T05:26:58.710Z,96.27
2023-09-05T05:32:07.491Z,96.95
2023-09-05T05:37:13.564Z,97.23
2023-09-05T05:42:20.225Z,97.89
2023-09-05T05:47:28.570Z,99.14
2023-09-05T05:52:35.594Z,100.00
2023-09-05T05:57:42.060Z,100.00
2023-09-05T06:02:49.881Z,100.00
2023-09-05T06:07:57.739Z,100.00
2023-09-05T06:13:04.749Z,100.00
2023-09-05T06:18:13.138Z,100.00
2023-09-05T06:23:19.978Z,100.00
2023-09-05T06:28:27.485Z,100.00
2023-09-05T06:33:35.993Z,100.00
2023-09-05T06:38:43.355Z,100.00
2023-09-05T06:43:50.209Z,100.00
2023-09-05T06:48:58.416Z,100.00
2023-09-05T06:54:05.256Z,100.00
2023-09-05T06:59:18.819Z,100.00
2023-09-05T07:04:28.907Z,100.00
2023-09-05T07:09:35.669Z,100.00
2023-09-05T07:14:44.020Z,100.00
2023-09-05T07:19:52.973Z,100.00
2023-09-05T07:24:59.352Z,100.00
2023-09-05T07:30:06.985Z,100.00
2023-09-05T07:35:15.112Z,100.00
2023-09-05T07:40:24.204Z,100.00
2023-09-05T07:45:30.877Z,100.00
2023-09-05T07:50:39.636Z,100.00
2023-09-05T07:55:46.401Z,100.00
2023-09-05T08:00:54.592Z,100.00
2023-09-05T08:06:02.761Z,100.00
2023-09-05T08:11:09.539Z,100.00
2023-09-05T08:16:16.893Z,100.00
2023-09-05T08:21:28.053Z,100.00
2023-09-05T08:26:36.048Z,100.00
2023-09-05T08:31:42.735Z,100.00
2023-09-05T08:36:50.747Z,100.00
2023-09-05T08:41:57.806Z,96.74
2023-09-05T08:47:04.556Z,96.80
2023-09-05T08:52:18.246Z,95.81
2023-09-05T08:57:29.638Z,95.05
2023-09-05T09:02:37.864Z,95.39
2023-09-05T09:07:46.377Z,96.86
2023-09-05T09:12:56.952Z,95.82
2023-09-05T09:18:04.634Z,93.98
2023-09-05T09:23:12.790Z,93.25
2023-09-05T09:28:28.318Z,91.64
2023-09-05T09:33:36.952Z,91.99
2023-09-05T09:38:45.502Z,92.59
2023-09-05T09:43:58.169Z,89.17
2023-09-05T09:49:08.541Z,89.34
2023-09-05T09:54:18.904Z,89.89
2023-09-05T09:59:28.691Z,88.79
2023-09-05T10:04:37.719Z,84.03
2023-09-05T10:09:47.592Z,86.32
2023-09-05T10:14:57.415Z,85.43
2023-09-05T10:20:09.370Z,85.57
2023-09-05T10:25:19.554Z,86.82
2023-09-05T10:30:26.282Z,82.76
2023-09-05T10:35:34.994Z,80.88
2023-09-05T10:40:43.322Z,81.01
2023-09-05T10:45:58.263Z,82.55
2023-09-05T10:51:13.553Z,81.12
2023-09-05T10:56:45.449Z,81.12
2023-09-05T11:01:54.404Z,80.40
2023-09-05T11:07:11.005Z,81.83
2023-09-05T11:12:21.513Z,79.22
2023-09-05T11:17:30.102Z,79.57
2023-09-05T11:22:36.231Z,74.88
2023-09-05T11:27:43.732Z,77.08
2023-09-05T11:32:51.370Z,78.27
2023-09-05T11:38:04.229Z,77.38
2023-09-05T11:43:15.435Z,75.67
2023-09-05T11:48:24.803Z,76.99
2023-09-05T11:53:31.626Z,74.63
2023-09-05T11:58:39.897Z,76.67
2023-09-05T12:03:46.356Z,76.75
2023-09-05T12:08:54.448Z,78.51
2023-09-05T12:14:02.555Z,73.73
2023-09-05T12:19:09.926Z,73.88
2023-09-05T12:24:24.739Z,73.05
2023-09-05T12:29:50.944Z,74.10
2023-09-05T12:34:57.739Z,73.05
2023-09-05T12:40:06.860Z,70.73
2023-09-05T12:45:16.396Z,73.40
2023-09-05T12:50:31.572Z,73.44
2023-09-05T12:55:39.106Z,72.46
2023-09-05T13:00:48.642Z,72.25
2023-09-05T13:05:55.132Z,73.48
2023-09-05T13:11:01.399Z,74.21
2023-09-05T13:16:09.378Z,75.25
2023-09-05T13:21:16.930Z,75.27
2023-09-05T13:26:23.357Z,73.34
2023-09-05T13:31:31.862Z,71.26
2023-09-05T13:36:39.329Z,72.40
2023-09-05T13:41:45.989Z,72.06
2023-09-05T13:46:54.360Z,71.50
2023-09-05T13:52:01.803Z,74.77
2023-09-05T13:57:09.073Z,74.79
2023-09-05T14:02:17.030Z,76.92
2023-09-05T14:07:23.454Z,77.94
2023-09-05T14:12:30.358Z,77.72
2023-09-05T14:17:38.718Z,75.60
2023-09-05T14:22:45.427Z,74.27
2023-09-05T14:27:52.954Z,72.96
2023-09-05T14:33:02.025Z,73.53
2023-09-05T14:38:08.666Z,75.41
2023-09-05T14:43:17.055Z,76.36
2023-09-05T14:48:26.019Z,77.45
2023-09-05T14:53:33.562Z,77.16
2023-09-05T14:58:41.470Z,76.29
2023-09-05T15:03:49.918Z,75.95
2023-09-05T15:08:57.029Z,76.72
2023-09-05T15:14:03.703Z,76.44
2023-09-05T15:19:11.986Z,77.28
2023-09-05T15:24:18.621Z,77.43
2023-09-05T15:29:25.275Z,77.24
2023-09-05T15:34:35.521Z,77.54
2023-09-05T15:39:42.960Z,77.52
2023-09-05T15:44:49.694Z,77.72
2023-09-05T15:49:57.892Z,77.67
2023-09-05T15:55:04.298Z,78.31
2023-09-05T16:00:12.568Z,80.60
2023-09-05T16:05:20.893Z,81.63
2023-09-05T16:10:28.441Z,82.78
2023-09-05T16:15:35.019Z,83.63
2023-09-05T16:20:55.364Z,83.35
2023-09-05T16:26:03.336Z,83.87
2023-09-05T16:31:11.443Z,84.70
2023-09-05T16:36:23.079Z,84.78
2023-09-05T16:41:31.508Z,84.69
2023-09-05T16:46:38.697Z,84.58
2023-09-05T16:51:47.283Z,84.96
2023-09-05T16:56:54.364Z,84.82
2023-09-05T17:02:02.599Z,86.06
2023-09-05T17:07:11.393Z,87.19
2023-09-05T17:12:18.372Z,87.68
2023-09-05T17:17:26.061Z,88.07
2023-09-05T17:22:34.865Z,89.05
2023-09-05T17:27:45.892Z,89.51
2023-09-05T17:32:53.767Z,90.23
2023-09-05T17:38:02.726Z,90.60
2023-09-05T17:43:10.037Z,91.83
2023-09-05T17:48:20.221Z,91.28
2023-09-05T17:53:31.948Z,91.27
2023-09-05T17:58:41.026Z,92.20
2023-09-05T18:03:49.219Z,92.96
2023-09-05T18:09:01.915Z,93.13
2023-09-05T18:14:13.919Z,93.48
2023-09-05T18:19:22.700Z,93.75
2023-09-05T18:24:34.017Z,94.13
2023-09-05T18:29:48.139Z,94.62
2023-09-05T18:35:02.043Z,94.25
2023-09-05T18:40:17.931Z,95.15
2023-09-05T18:45:31.897Z,95.28
2023-09-05T18:50:42.594Z,96.21
2023-09-05T18:55:53.959Z,95.93
2023-09-05T19:01:04.003Z,95.35
2023-09-05T19:06:15.414Z,93.80
2023-09-05T19:11:26.750Z,94.40
2023-09-05T19:16:34.613Z,95.23
2023-09-05T19:21:43.440Z,95.09
2023-09-05T19:26:56.687Z,94.52
2023-09-05T19:32:06.031Z,92.88
2023-09-05T19:37:17.198Z,93.72
2023-09-05T19:42:28.197Z,93.31
2023-09-05T19:47:39.049Z,92.70
2023-09-05T19:52:47.886Z,92.63
2023-09-05T19:57:59.268Z,93.71
2023-09-05T20:03:10.387Z,92.19
2023-09-05T20:08:19.156Z,93.15
2023-09-05T20:13:29.721Z,94.66
2023-09-05T20:18:39.432Z,95.86
2023-09-05T20:23:47.537Z,95.63
2023-09-05T20:28:57.289Z,95.51
2023-09-05T20:34:05.663Z,94.27
2023-09-05T20:39:13.425Z,93.04
2023-09-05T20:44:25.286Z,93.99
2023-09-05T20:49:34.401Z,94.46
2023-09-05T20:54:42.617Z,94.22
2023-09-05T20:59:54.089Z,94.50
2023-09-05T21:05:00.979Z,95.17
2023-09-05T21:10:10.402Z,95.30
2023-09-05T21:15:18.837Z,95.79
2023-09-05T21:20:25.212Z,95.77
2023-09-05T21:25:31.926Z,95.64
2023-09-05T21:30:40.145Z,94.89
2023-09-05T21:35:47.207Z,93.05
2023-09-05T21:40:53.884Z,93.48
2023-09-05T21:46:02.070Z,92.55
2023-09-05T21:51:08.911Z,91.91
2023-09-05T21:56:16.755Z,92.51
2023-09-05T22:01:24.944Z,93.30
2023-09-05T22:06:31.591Z,93.29
2023-09-05T22:11:38.411Z,94.41
2023-09-05T22:16:46.706Z,93.95
2023-09-05T22:21:53.335Z,92.72
2023-09-05T22:27:01.771Z,92.55
2023-09-05T22:32:09.879Z,93.03
2023-09-05T22:37:16.218Z,93.95
2023-09-05T22:42:23.020Z,94.27
2023-09-05T22:47:31.206Z,93.62
2023-09-05T22:52:38.170Z,93.34
2023-09-05T22:57:44.819Z,92.83
2023-09-05T23:02:53.175Z,92.99
2023-09-05T23:08:00.082Z,92.22
2023-09-05T23:13:06.889Z,92.08
2023-09-05T23:18:14.842Z,93.28
2023-09-05T23:23:22.051Z,91.67
2023-09-05T23:28:29.871Z,90.97
2023-09-05T23:33:38.340Z,91.80
2023-09-05T23:38:45.286Z,92.71
2023-09-05T23:43:51.859Z,92.63
2023-09-05T23:49:01.953Z,92.94
2023-09-05T23:54:08.962Z,92.33
2023-09-05T23:59:16.857Z,92.37
